sensor_id;sensor_type;location;lat;lon;timestamp;P1;durP1;ratioP1;P2;durP2;ratioP2
29776;SDS011;16677;52.224;7.484;2023-07-20T00:02:43;4.53;;;3.53;;
29776;SDS011;16677;52.224;7.484;2023-07-20T00:05:11;6.27;;;3.63;;
29776;SDS011;16677;52.224;7.484;2023-07-20T00:07:38;4.97;;;3.30;;
29776;SDS011;16677;52.224;7.484;2023-07-20T00:10:06;6.40;;;3.07;;
29776;SDS011;16677;52.224;7.484;2023-07-20T00:12:33;4.83;;;3.00;;
29776;SDS011;16677;52.224;7.484;2023-07-20T00:15:01;3.37;;;3.07;;
29776;SDS011;16677;52.224;7.484;2023-07-20T00:17:28;3.63;;;3.00;;
29776;SDS011;16677;52.224;7.484;2023-07-20T00:19:59;3.57;;;2.87;;
29776;SDS011;16677;52.224;7.484;2023-07-20T00:22:26;4.00;;;3.20;;
29776;SDS011;16677;52.224;7.484;2023-07-20T00:24:53;5.30;;;3.40;;
29776;SDS011;16677;52.224;7.484;2023-07-20T00:27:20;3.90;;;2.73;;
29776;SDS011;16677;52.224;7.484;2023-07-20T00:29:47;3.27;;;2.97;;
29776;SDS011;16677;52.224;7.484;2023-07-20T00:32:15;3.57;;;3.10;;
29776;SDS011;16677;52.224;7.484;2023-07-20T00:34:42;3.90;;;3.30;;
29776;SDS011;16677;52.224;7.484;2023-07-20T00:37:09;3.30;;;2.90;;
29776;SDS011;16677;52.224;7.484;2023-07-20T00:39:36;5.57;;;3.20;;
29776;SDS011;16677;52.224;7.484;2023-07-20T00:42:05;4.23;;;3.10;;
29776;SDS011;16677;52.224;7.484;2023-07-20T00:44:32;3.70;;;3.37;;
29776;SDS011;16677;52.224;7.484;2023-07-20T00:46:59;4.13;;;3.00;;
29776;SDS011;16677;52.224;7.484;2023-07-20T00:49:27;3.40;;;3.10;;
29776;SDS011;16677;52.224;7.484;2023-07-20T00:51:54;3.93;;;3.63;;
29776;SDS011;16677;52.224;7.484;2023-07-20T00:54:21;4.57;;;3.47;;
29776;SDS011;16677;52.224;7.484;2023-07-20T00:56:49;6.60;;;3.87;;
29776;SDS011;16677;52.224;7.484;2023-07-20T00:59:19;3.77;;;3.33;;
29776;SDS011;16677;52.224;7.484;2023-07-20T01:01:46;4.28;;;3.83;;
29776;SDS011;16677;52.224;7.484;2023-07-20T01:04:14;5.27;;;3.83;;
29776;SDS011;16677;52.224;7.484;2023-07-20T01:09:19;5.07;;;3.60;;
29776;SDS011;16677;52.224;7.484;2023-07-20T01:14:35;5.00;;;3.47;;
29776;SDS011;16677;52.224;7.484;2023-07-20T01:17:03;4.70;;;4.30;;
29776;SDS011;16677;52.224;7.484;2023-07-20T01:19:30;6.93;;;4.50;;
29776;SDS011;16677;52.224;7.484;2023-07-20T01:30:50;6.23;;;4.60;;
29776;SDS011;16677;52.224;7.484;2023-07-20T01:33:21;4.87;;;4.37;;
29776;SDS011;16677;52.224;7.484;2023-07-20T01:35:54;5.33;;;4.83;;
29776;SDS011;16677;52.224;7.484;2023-07-20T01:38:25;6.73;;;4.90;;
29776;SDS011;16677;52.224;7.484;2023-07-20T01:40:53;5.63;;;4.67;;
29776;SDS011;16677;52.224;7.484;2023-07-20T01:43:20;5.67;;;4.47;;
29776;SDS011;16677;52.224;7.484;2023-07-20T01:45:48;4.37;;;3.97;;
29776;SDS011;16677;52.224;7.484;2023-07-20T01:48:15;3.63;;;3.33;;
29776;SDS011;16677;52.224;7.484;2023-07-20T01:50:43;4.47;;;3.50;;
29776;SDS011;16677;52.224;7.484;2023-07-20T01:53:10;4.68;;;3.78;;
29776;SDS011;16677;52.224;7.484;2023-07-20T01:55:38;3.93;;;3.23;;
29776;SDS011;16677;52.224;7.484;2023-07-20T01:58:05;5.00;;;3.43;;
29776;SDS011;16677;52.224;7.484;2023-07-20T02:00:33;3.53;;;3.23;;
29776;SDS011;16677;52.224;7.484;2023-07-20T02:05:27;4.10;;;3.80;;
29776;SDS011;16677;52.224;7.484;2023-07-20T02:07:55;5.97;;;4.37;;
29776;SDS011;16677;52.224;7.484;2023-07-20T02:10:22;4.47;;;4.07;;
29776;SDS011;16677;52.224;7.484;2023-07-20T02:12:49;4.87;;;4.47;;
29776;SDS011;16677;52.224;7.484;2023-07-20T02:15:16;5.63;;;5.07;;
29776;SDS011;16677;52.224;7.484;2023-07-20T02:17:45;5.80;;;5.27;;
29776;SDS011;16677;52.224;7.484;2023-07-20T02:20:12;6.57;;;5.97;;
29776;SDS011;16677;52.224;7.484;2023-07-20T02:22:40;6.43;;;5.43;;
29776;SDS011;16677;52.224;7.484;2023-07-20T02:25:08;6.07;;;5.57;;
29776;SDS011;16677;52.224;7.484;2023-07-20T02:27:36;6.23;;;5.73;;
29776;SDS011;16677;52.224;7.484;2023-07-20T02:30:04;8.20;;;7.40;;
29776;SDS011;16677;52.224;7.484;2023-07-20T02:32:33;8.87;;;7.83;;
29776;SDS011;16677;52.224;7.484;2023-07-20T02:35:00;9.40;;;8.50;;
29776;SDS011;16677;52.224;7.484;2023-07-20T02:37:30;11.03;;;10.03;;
29776;SDS011;16677;52.224;7.484;2023-07-20T02:39:57;12.37;;;11.23;;
29776;SDS011;16677;52.224;7.484;2023-07-20T02:42:24;13.63;;;12.23;;
29776;SDS011;16677;52.224;7.484;2023-07-20T02:44:52;13.93;;;12.40;;
29776;SDS011;16677;52.224;7.484;2023-07-20T02:47:20;13.13;;;11.93;;
29776;SDS011;16677;52.224;7.484;2023-07-20T02:49:47;14.47;;;13.27;;
29776;SDS011;16677;52.224;7.484;2023-07-20T02:52:14;14.23;;;12.93;;
29776;SDS011;16677;52.224;7.484;2023-07-20T02:54:42;14.40;;;13.10;;
29776;SDS011;16677;52.224;7.484;2023-07-20T02:57:09;13.70;;;12.40;;
29776;SDS011;16677;52.224;7.484;2023-07-20T02:59:36;13.20;;;12.10;;
29776;SDS011;16677;52.224;7.484;2023-07-20T03:02:03;13.60;;;12.40;;
29776;SDS011;16677;52.224;7.484;2023-07-20T03:04:31;12.57;;;11.37;;
29776;SDS011;16677;52.224;7.484;2023-07-20T03:06:58;13.07;;;11.97;;
29776;SDS011;16677;52.224;7.484;2023-07-20T03:09:26;12.07;;;10.97;;
29776;SDS011;16677;52.224;7.484;2023-07-20T03:11:53;11.60;;;10.63;;
29776;SDS011;16677;52.224;7.484;2023-07-20T03:14:20;10.63;;;9.53;;
29776;SDS011;16677;52.224;7.484;2023-07-20T03:16:47;10.33;;;9.40;;
29776;SDS011;16677;52.224;7.484;2023-07-20T03:19:15;8.43;;;6.67;;
29776;SDS011;16677;52.224;7.484;2023-07-20T03:21:42;8.27;;;7.47;;
29776;SDS011;16677;52.224;7.484;2023-07-20T03:24:10;7.80;;;7.10;;
29776;SDS011;16677;52.224;7.484;2023-07-20T03:26:37;8.17;;;7.30;;
29776;SDS011;16677;52.224;7.484;2023-07-20T03:29:04;7.27;;;6.67;;
29776;SDS011;16677;52.224;7.484;2023-07-20T03:31:33;7.63;;;7.03;;
29776;SDS011;16677;52.224;7.484;2023-07-20T03:34:00;7.60;;;6.90;;
29776;SDS011;16677;52.224;7.484;2023-07-20T03:36:27;6.73;;;6.13;;
29776;SDS011;16677;52.224;7.484;2023-07-20T03:38:54;7.53;;;6.93;;
29776;SDS011;16677;52.224;7.484;2023-07-20T03:41:22;6.73;;;6.23;;
29776;SDS011;16677;52.224;7.484;2023-07-20T03:43:49;8.23;;;7.50;;
29776;SDS011;16677;52.224;7.484;2023-07-20T03:46:16;8.23;;;7.53;;
29776;SDS011;16677;52.224;7.484;2023-07-20T03:48:43;8.37;;;7.67;;
29776;SDS011;16677;52.224;7.484;2023-07-20T03:51:11;8.70;;;7.90;;
29776;SDS011;16677;52.224;7.484;2023-07-20T03:53:38;8.50;;;7.80;;
29776;SDS011;16677;52.224;7.484;2023-07-20T03:56:05;7.73;;;7.03;;
29776;SDS011;16677;52.224;7.484;2023-07-20T03:58:32;7.03;;;6.33;;
29776;SDS011;16677;52.224;7.484;2023-07-20T04:01:00;5.97;;;5.47;;
29776;SDS011;16677;52.224;7.484;2023-07-20T04:03:27;5.40;;;4.90;;
29776;SDS011;16677;52.224;7.484;2023-07-20T04:05:54;6.03;;;5.50;;
29776;SDS011;16677;52.224;7.484;2023-07-20T04:08:25;6.47;;;5.20;;
29776;SDS011;16677;52.224;7.484;2023-07-20T04:10:52;5.23;;;4.83;;
29776;SDS011;16677;52.224;7.484;2023-07-20T04:13:19;5.97;;;5.20;;
29776;SDS011;16677;52.224;7.484;2023-07-20T04:15:47;5.47;;;5.07;;
29776;SDS011;16677;52.224;7.484;2023-07-20T04:18:14;5.37;;;4.97;;
29776;SDS011;16677;52.224;7.484;2023-07-20T04:20:41;4.70;;;4.30;;
29776;SDS011;16677;52.224;7.484;2023-07-20T04:23:09;5.40;;;4.90;;
29776;SDS011;16677;52.224;7.484;2023-07-20T04:25:39;4.63;;;4.23;;
29776;SDS011;16677;52.224;7.484;2023-07-20T04:28:06;5.53;;;5.03;;
29776;SDS011;16677;52.224;7.484;2023-07-20T04:30:37;5.77;;;5.27;;
29776;SDS011;16677;52.224;7.484;2023-07-20T04:33:06;5.87;;;5.30;;
29776;SDS011;16677;52.224;7.484;2023-07-20T04:38:20;6.57;;;5.90;;
29776;SDS011;16677;52.224;7.484;2023-07-20T04:40:48;6.87;;;6.27;;
29776;SDS011;16677;52.224;7.484;2023-07-20T04:43:16;7.07;;;6.43;;
29776;SDS011;16677;52.224;7.484;2023-07-20T04:45:44;7.23;;;6.63;;
29776;SDS011;16677;52.224;7.484;2023-07-20T04:48:13;7.95;;;7.35;;
29776;SDS011;16677;52.224;7.484;2023-07-20T04:50:42;7.83;;;7.20;;
29776;SDS011;16677;52.224;7.484;2023-07-20T04:53:12;8.30;;;7.60;;
29776;SDS011;16677;52.224;7.484;2023-07-20T04:58:07;8.20;;;7.50;;
29776;SDS011;16677;52.224;7.484;2023-07-20T05:00:35;8.93;;;8.13;;
29776;SDS011;16677;52.224;7.484;2023-07-20T05:03:04;9.30;;;8.40;;
29776;SDS011;16677;52.224;7.484;2023-07-20T05:05:32;9.97;;;8.97;;
29776;SDS011;16677;52.224;7.484;2023-07-20T05:07:59;9.80;;;8.90;;
29776;SDS011;16677;52.224;7.484;2023-07-20T05:10:27;9.70;;;8.77;;
29776;SDS011;16677;52.224;7.484;2023-07-20T05:12:54;10.30;;;8.00;;
29776;SDS011;16677;52.224;7.484;2023-07-20T05:15:21;8.83;;;7.03;;
29776;SDS011;16677;52.224;7.484;2023-07-20T05:17:49;7.90;;;7.20;;
29776;SDS011;16677;52.224;7.484;2023-07-20T05:20:16;7.10;;;6.43;;
29776;SDS011;16677;52.224;7.484;2023-07-20T05:22:43;8.87;;;6.23;;
29776;SDS011;16677;52.224;7.484;2023-07-20T05:25:11;7.13;;;5.73;;
29776;SDS011;16677;52.224;7.484;2023-07-20T05:27:38;5.83;;;5.33;;
29776;SDS011;16677;52.224;7.484;2023-07-20T05:30:07;6.70;;;6.10;;
29776;SDS011;16677;52.224;7.484;2023-07-20T05:32:34;6.10;;;5.50;;
29776;SDS011;16677;52.224;7.484;2023-07-20T05:35:02;6.47;;;5.87;;
29776;SDS011;16677;52.224;7.484;2023-07-20T05:37:29;5.93;;;5.43;;
29776;SDS011;16677;52.224;7.484;2023-07-20T05:39:57;6.77;;;6.17;;
29776;SDS011;16677;52.224;7.484;2023-07-20T05:42:24;6.57;;;5.97;;
29776;SDS011;16677;52.224;7.484;2023-07-20T05:44:52;6.17;;;5.63;;
29776;SDS011;16677;52.224;7.484;2023-07-20T05:47:20;7.67;;;6.83;;
29776;SDS011;16677;52.224;7.484;2023-07-20T05:49:48;7.80;;;6.60;;
29776;SDS011;16677;52.224;7.484;2023-07-20T05:52:15;7.07;;;6.53;;
29776;SDS011;16677;52.224;7.484;2023-07-20T05:54:42;11.47;;;7.33;;
29776;SDS011;16677;52.224;7.484;2023-07-20T06:02:04;8.60;;;7.80;;
29776;SDS011;16677;52.224;7.484;2023-07-20T06:04:34;9.90;;;7.87;;
29776;SDS011;16677;52.224;7.484;2023-07-20T06:07:01;7.80;;;6.97;;
29776;SDS011;16677;52.224;7.484;2023-07-20T06:12:03;8.40;;;6.03;;
29776;SDS011;16677;52.224;7.484;2023-07-20T06:14:31;7.97;;;5.70;;
29776;SDS011;16677;52.224;7.484;2023-07-20T06:16:58;7.23;;;5.50;;
29776;SDS011;16677;52.224;7.484;2023-07-20T06:19:26;7.17;;;6.07;;
29776;SDS011;16677;52.224;7.484;2023-07-20T06:21:53;6.40;;;5.90;;
29776;SDS011;16677;52.224;7.484;2023-07-20T06:24:21;5.33;;;4.80;;
29776;SDS011;16677;52.224;7.484;2023-07-20T06:26:48;6.93;;;4.90;;
29776;SDS011;16677;52.224;7.484;2023-07-20T06:29:15;5.30;;;4.80;;
29776;SDS011;16677;52.224;7.484;2023-07-20T06:31:42;5.57;;;4.93;;
29776;SDS011;16677;52.224;7.484;2023-07-20T06:34:10;5.40;;;4.67;;
29776;SDS011;16677;52.224;7.484;2023-07-20T06:36:37;6.53;;;5.03;;
29776;SDS011;16677;52.224;7.484;2023-07-20T06:39:05;4.53;;;4.13;;
29776;SDS011;16677;52.224;7.484;2023-07-20T06:41:35;4.80;;;4.40;;
29776;SDS011;16677;52.224;7.484;2023-07-20T06:44:05;6.13;;;5.47;;
29776;SDS011;16677;52.224;7.484;2023-07-20T06:46:32;6.10;;;5.60;;
29776;SDS011;16677;52.224;7.484;2023-07-20T06:48:59;5.80;;;5.30;;
29776;SDS011;16677;52.224;7.484;2023-07-20T06:51:30;6.37;;;4.60;;
29776;SDS011;16677;52.224;7.484;2023-07-20T06:53:57;5.63;;;4.03;;
29776;SDS011;16677;52.224;7.484;2023-07-20T06:56:24;4.53;;;4.13;;
29776;SDS011;16677;52.224;7.484;2023-07-20T06:58:53;4.03;;;3.63;;
29776;SDS011;16677;52.224;7.484;2023-07-20T07:01:20;4.60;;;3.47;;
29776;SDS011;16677;52.224;7.484;2023-07-20T07:03:49;3.63;;;3.20;;
29776;SDS011;16677;52.224;7.484;2023-07-20T07:06:21;4.13;;;3.00;;
29776;SDS011;16677;52.224;7.484;2023-07-20T07:08:50;3.43;;;2.90;;
29776;SDS011;16677;52.224;7.484;2023-07-20T07:11:20;3.63;;;2.93;;
29776;SDS011;16677;52.224;7.484;2023-07-20T07:13:48;4.17;;;2.70;;
29776;SDS011;16677;52.224;7.484;2023-07-20T07:16:17;2.33;;;1.80;;
29776;SDS011;16677;52.224;7.484;2023-07-20T07:18:50;8.80;;;1.70;;
29776;SDS011;16677;52.224;7.484;2023-07-20T07:21:18;4.77;;;2.30;;
29776;SDS011;16677;52.224;7.484;2023-07-20T07:23:45;4.03;;;2.20;;
29776;SDS011;16677;52.224;7.484;2023-07-20T07:26:13;2.57;;;1.53;;
29776;SDS011;16677;52.224;7.484;2023-07-20T07:28:41;2.33;;;1.77;;
29776;SDS011;16677;52.224;7.484;2023-07-20T07:31:08;3.70;;;1.50;;
29776;SDS011;16677;52.224;7.484;2023-07-20T07:33:36;2.07;;;1.40;;
29776;SDS011;16677;52.224;7.484;2023-07-20T07:36:03;1.77;;;1.50;;
29776;SDS011;16677;52.224;7.484;2023-07-20T07:38:31;2.20;;;1.40;;
29776;SDS011;16677;52.224;7.484;2023-07-20T07:41:18;5.07;;;1.60;;
29776;SDS011;16677;52.224;7.484;2023-07-20T07:43:45;2.23;;;1.20;;
29776;SDS011;16677;52.224;7.484;2023-07-20T07:46:12;3.63;;;1.33;;
29776;SDS011;16677;52.224;7.484;2023-07-20T07:48:40;1.13;;;0.90;;
29776;SDS011;16677;52.224;7.484;2023-07-20T07:51:08;2.37;;;1.07;;
29776;SDS011;16677;52.224;7.484;2023-07-20T07:53:36;2.10;;;1.33;;
29776;SDS011;16677;52.224;7.484;2023-07-20T07:56:06;2.97;;;1.23;;
29776;SDS011;16677;52.224;7.484;2023-07-20T07:58:34;2.67;;;1.30;;
29776;SDS011;16677;52.224;7.484;2023-07-20T08:01:01;3.20;;;1.30;;
29776;SDS011;16677;52.224;7.484;2023-07-20T08:03:29;2.33;;;1.27;;
29776;SDS011;16677;52.224;7.484;2023-07-20T08:05:56;2.33;;;1.00;;
29776;SDS011;16677;52.224;7.484;2023-07-20T08:08:25;1.10;;;0.90;;
29776;SDS011;16677;52.224;7.484;2023-07-20T08:10:53;2.10;;;1.07;;
29776;SDS011;16677;52.224;7.484;2023-07-20T08:13:21;2.47;;;1.30;;
29776;SDS011;16677;52.224;7.484;2023-07-20T08:15:49;1.05;;;0.95;;
29776;SDS011;16677;52.224;7.484;2023-07-20T08:18:18;2.97;;;0.80;;
29776;SDS011;16677;52.224;7.484;2023-07-20T08:20:46;1.40;;;1.07;;
29776;SDS011;16677;52.224;7.484;2023-07-20T08:23:13;2.00;;;1.52;;
29776;SDS011;16677;52.224;7.484;2023-07-20T08:25:41;1.10;;;0.95;;
29776;SDS011;16677;52.224;7.484;2023-07-20T08:28:13;1.30;;;0.90;;
29776;SDS011;16677;52.224;7.484;2023-07-20T08:30:41;1.20;;;0.95;;
29776;SDS011;16677;52.224;7.484;2023-07-20T08:33:15;2.35;;;1.05;;
29776;SDS011;16677;52.224;7.484;2023-07-20T08:35:46;1.25;;;0.90;;
29776;SDS011;16677;52.224;7.484;2023-07-20T08:38:14;3.17;;;1.20;;
29776;SDS011;16677;52.224;7.484;2023-07-20T08:40:44;2.30;;;1.00;;
29776;SDS011;16677;52.224;7.484;2023-07-20T08:43:13;1.63;;;1.20;;
29776;SDS011;16677;52.224;7.484;2023-07-20T08:45:45;5.43;;;1.65;;
29776;SDS011;16677;52.224;7.484;2023-07-20T08:48:15;2.37;;;1.10;;
29776;SDS011;16677;52.224;7.484;2023-07-20T08:50:43;3.10;;;1.10;;
29776;SDS011;16677;52.224;7.484;2023-07-20T08:53:13;3.90;;;1.50;;
29776;SDS011;16677;52.224;7.484;2023-07-20T08:55:42;2.00;;;1.00;;
29776;SDS011;16677;52.224;7.484;2023-07-20T08:58:16;1.95;;;1.05;;
29776;SDS011;16677;52.224;7.484;2023-07-20T09:00:44;1.08;;;0.98;;
29776;SDS011;16677;52.224;7.484;2023-07-20T09:03:12;0.95;;;0.88;;
29776;SDS011;16677;52.224;7.484;2023-07-20T09:05:41;2.10;;;1.20;;
29776;SDS011;16677;52.224;7.484;2023-07-20T09:08:09;2.10;;;1.25;;
29776;SDS011;16677;52.224;7.484;2023-07-20T09:10:36;3.90;;;1.20;;
29776;SDS011;16677;52.224;7.484;2023-07-20T09:13:03;2.00;;;1.07;;
29776;SDS011;16677;52.224;7.484;2023-07-20T09:15:33;3.53;;;1.17;;
29776;SDS011;16677;52.224;7.484;2023-07-20T09:18:01;2.93;;;1.00;;
29776;SDS011;16677;52.224;7.484;2023-07-20T09:20:31;2.17;;;0.85;;
29776;SDS011;16677;52.224;7.484;2023-07-20T09:23:03;1.08;;;0.90;;
29776;SDS011;16677;52.224;7.484;2023-07-20T09:25:32;4.00;;;1.00;;
29776;SDS011;16677;52.224;7.484;2023-07-20T09:28:02;1.50;;;1.00;;
29776;SDS011;16677;52.224;7.484;2023-07-20T09:30:31;1.17;;;0.80;;
29776;SDS011;16677;52.224;7.484;2023-07-20T09:32:59;0.87;;;0.87;;
29776;SDS011;16677;52.224;7.484;2023-07-20T09:35:27;1.30;;;0.80;;
29776;SDS011;16677;52.224;7.484;2023-07-20T09:38:08;1.90;;;1.00;;
29776;SDS011;16677;52.224;7.484;2023-07-20T09:40:38;1.00;;;0.90;;
29776;SDS011;16677;52.224;7.484;2023-07-20T09:43:09;0.80;;;0.80;;
29776;SDS011;16677;52.224;7.484;2023-07-20T09:45:40;2.38;;;0.90;;
29776;SDS011;16677;52.224;7.484;2023-07-20T09:48:11;6.85;;;2.50;;
29776;SDS011;16677;52.224;7.484;2023-07-20T09:50:50;7.00;;;2.00;;
29776;SDS011;16677;52.224;7.484;2023-07-20T09:53:19;1.58;;;1.20;;
29776;SDS011;16677;52.224;7.484;2023-07-20T09:55:47;0.93;;;0.80;;
29776;SDS011;16677;52.224;7.484;2023-07-20T09:58:15;5.18;;;1.95;;
29776;SDS011;16677;52.224;7.484;2023-07-20T10:00:43;3.97;;;1.50;;
29776;SDS011;16677;52.224;7.484;2023-07-20T10:03:20;2.10;;;1.03;;
29776;SDS011;16677;52.224;7.484;2023-07-20T10:05:54;1.43;;;0.90;;
29776;SDS011;16677;52.224;7.484;2023-07-20T10:08:25;1.60;;;0.87;;
29776;SDS011;16677;52.224;7.484;2023-07-20T10:10:57;1.85;;;0.93;;
29776;SDS011;16677;52.224;7.484;2023-07-20T10:13:30;1.85;;;0.82;;
29776;SDS011;16677;52.224;7.484;2023-07-20T10:21:25;2.50;;;1.17;;
29776;SDS011;16677;52.224;7.484;2023-07-20T10:23:56;1.20;;;1.07;;
29776;SDS011;16677;52.224;7.484;2023-07-20T10:26:25;2.93;;;1.00;;
29776;SDS011;16677;52.224;7.484;2023-07-20T10:28:53;3.57;;;1.40;;
29776;SDS011;16677;52.224;7.484;2023-07-20T10:31:22;5.10;;;1.30;;
29776;SDS011;16677;52.224;7.484;2023-07-20T10:33:50;1.77;;;0.73;;
29776;SDS011;16677;52.224;7.484;2023-07-20T10:36:24;2.27;;;1.00;;
29776;SDS011;16677;52.224;7.484;2023-07-20T10:38:57;1.63;;;1.00;;
29776;SDS011;16677;52.224;7.484;2023-07-20T10:41:29;1.30;;;0.90;;
29776;SDS011;16677;52.224;7.484;2023-07-20T10:44:08;1.33;;;1.10;;
29776;SDS011;16677;52.224;7.484;2023-07-20T10:49:11;0.90;;;0.90;;
29776;SDS011;16677;52.224;7.484;2023-07-20T10:51:46;2.72;;;1.10;;
29776;SDS011;16677;52.224;7.484;2023-07-20T10:56:43;1.10;;;0.80;;
29776;SDS011;16677;52.224;7.484;2023-07-20T10:59:18;0.80;;;0.70;;
29776;SDS011;16677;52.224;7.484;2023-07-20T11:02:07;2.10;;;1.17;;
29776;SDS011;16677;52.224;7.484;2023-07-20T11:04:38;4.82;;;1.05;;
29776;SDS011;16677;52.224;7.484;2023-07-20T11:07:06;2.53;;;1.83;;
29776;SDS011;16677;52.224;7.484;2023-07-20T11:09:34;1.02;;;0.80;;
29776;SDS011;16677;52.224;7.484;2023-07-20T11:12:14;0.70;;;0.70;;
29776;SDS011;16677;52.224;7.484;2023-07-20T11:14:56;2.78;;;0.80;;
29776;SDS011;16677;52.224;7.484;2023-07-20T11:17:30;0.95;;;0.90;;
29776;SDS011;16677;52.224;7.484;2023-07-20T11:20:00;2.05;;;0.88;;
29776;SDS011;16677;52.224;7.484;2023-07-20T11:22:32;2.33;;;1.17;;
29776;SDS011;16677;52.224;7.484;2023-07-20T11:25:00;2.13;;;0.80;;
29776;SDS011;16677;52.224;7.484;2023-07-20T11:27:27;1.05;;;0.70;;
29776;SDS011;16677;52.224;7.484;2023-07-20T11:29:56;1.63;;;0.70;;
29776;SDS011;16677;52.224;7.484;2023-07-20T11:32:23;0.77;;;0.75;;
29776;SDS011;16677;52.224;7.484;2023-07-20T11:34:51;1.75;;;0.75;;
29776;SDS011;16677;52.224;7.484;2023-07-20T11:37:18;1.17;;;1.08;;
29776;SDS011;16677;52.224;7.484;2023-07-20T11:39:46;1.42;;;0.80;;
29776;SDS011;16677;52.224;7.484;2023-07-20T11:42:14;1.08;;;0.90;;
29776;SDS011;16677;52.224;7.484;2023-07-20T11:44:44;2.67;;;0.90;;
29776;SDS011;16677;52.224;7.484;2023-07-20T11:47:11;1.98;;;0.80;;
29776;SDS011;16677;52.224;7.484;2023-07-20T11:49:40;1.90;;;1.00;;
29776;SDS011;16677;52.224;7.484;2023-07-20T11:52:10;1.73;;;0.70;;
29776;SDS011;16677;52.224;7.484;2023-07-20T11:54:42;0.82;;;0.82;;
29776;SDS011;16677;52.224;7.484;2023-07-20T11:57:18;3.15;;;0.90;;
29776;SDS011;16677;52.224;7.484;2023-07-20T11:59:52;1.25;;;0.70;;
29776;SDS011;16677;52.224;7.484;2023-07-20T12:02:24;0.80;;;0.80;;
29776;SDS011;16677;52.224;7.484;2023-07-20T12:04:54;0.80;;;0.80;;
29776;SDS011;16677;52.224;7.484;2023-07-20T12:07:22;1.17;;;0.85;;
29776;SDS011;16677;52.224;7.484;2023-07-20T12:12:33;6.55;;;1.50;;
29776;SDS011;16677;52.224;7.484;2023-07-20T12:15:20;8.48;;;1.65;;
29776;SDS011;16677;52.224;7.484;2023-07-20T12:17:56;3.53;;;1.40;;
29776;SDS011;16677;52.224;7.484;2023-07-20T12:20:27;2.60;;;1.33;;
29776;SDS011;16677;52.224;7.484;2023-07-20T12:25:41;3.07;;;1.60;;
29776;SDS011;16677;52.224;7.484;2023-07-20T12:28:11;1.67;;;1.10;;
29776;SDS011;16677;52.224;7.484;2023-07-20T12:30:44;3.17;;;1.50;;
29776;SDS011;16677;52.224;7.484;2023-07-20T12:33:13;1.37;;;1.23;;
29776;SDS011;16677;52.224;7.484;2023-07-20T12:35:44;3.00;;;1.30;;
29776;SDS011;16677;52.224;7.484;2023-07-20T12:38:11;1.30;;;1.10;;
29776;SDS011;16677;52.224;7.484;2023-07-20T12:40:38;1.63;;;1.10;;
29776;SDS011;16677;52.224;7.484;2023-07-20T12:43:07;1.03;;;0.80;;
29776;SDS011;16677;52.224;7.484;2023-07-20T12:45:35;1.27;;;0.93;;
29776;SDS011;16677;52.224;7.484;2023-07-20T12:48:02;1.37;;;0.93;;
29776;SDS011;16677;52.224;7.484;2023-07-20T12:50:30;0.80;;;0.80;;
29776;SDS011;16677;52.224;7.484;2023-07-20T12:53:04;0.97;;;0.80;;
29776;SDS011;16677;52.224;7.484;2023-07-20T12:55:34;1.17;;;0.70;;
29776;SDS011;16677;52.224;7.484;2023-07-20T12:58:03;1.33;;;0.73;;
29776;SDS011;16677;52.224;7.484;2023-07-20T13:00:32;1.00;;;0.90;;
29776;SDS011;16677;52.224;7.484;2023-07-20T13:02:59;0.90;;;0.90;;
29776;SDS011;16677;52.224;7.484;2023-07-20T13:05:34;1.13;;;0.90;;
29776;SDS011;16677;52.224;7.484;2023-07-20T13:08:05;1.03;;;0.93;;
29776;SDS011;16677;52.224;7.484;2023-07-20T13:10:35;1.10;;;0.90;;
29776;SDS011;16677;52.224;7.484;2023-07-20T13:13:04;1.73;;;1.10;;
29776;SDS011;16677;52.224;7.484;2023-07-20T13:15:40;3.33;;;1.10;;
29776;SDS011;16677;52.224;7.484;2023-07-20T13:18:10;4.30;;;1.30;;
29776;SDS011;16677;52.224;7.484;2023-07-20T13:20:39;4.93;;;1.23;;
29776;SDS011;16677;52.224;7.484;2023-07-20T13:23:07;1.97;;;1.20;;
29776;SDS011;16677;52.224;7.484;2023-07-20T13:25:34;1.93;;;1.07;;
29776;SDS011;16677;52.224;7.484;2023-07-20T13:28:01;0.80;;;0.80;;
29776;SDS011;16677;52.224;7.484;2023-07-20T13:30:29;2.60;;;0.90;;
29776;SDS011;16677;52.224;7.484;2023-07-20T13:32:56;1.03;;;0.90;;
29776;SDS011;16677;52.224;7.484;2023-07-20T13:35:23;0.70;;;0.70;;
29776;SDS011;16677;52.224;7.484;2023-07-20T13:37:51;1.50;;;0.90;;
29776;SDS011;16677;52.224;7.484;2023-07-20T13:40:18;1.20;;;1.00;;
29776;SDS011;16677;52.224;7.484;2023-07-20T13:42:46;1.70;;;0.90;;
29776;SDS011;16677;52.224;7.484;2023-07-20T13:45:13;1.93;;;0.90;;
29776;SDS011;16677;52.224;7.484;2023-07-20T13:47:41;1.70;;;0.90;;
29776;SDS011;16677;52.224;7.484;2023-07-20T13:50:12;0.70;;;0.70;;
29776;SDS011;16677;52.224;7.484;2023-07-20T13:52:52;1.80;;;0.63;;
29776;SDS011;16677;52.224;7.484;2023-07-20T13:55:39;2.20;;;0.70;;
29776;SDS011;16677;52.224;7.484;2023-07-20T13:58:09;0.80;;;0.80;;
29776;SDS011;16677;52.224;7.484;2023-07-20T14:00:39;0.80;;;0.80;;
29776;SDS011;16677;52.224;7.484;2023-07-20T14:03:07;0.60;;;0.60;;
29776;SDS011;16677;52.224;7.484;2023-07-20T14:05:38;0.70;;;0.70;;
29776;SDS011;16677;52.224;7.484;2023-07-20T14:08:09;1.00;;;0.90;;
29776;SDS011;16677;52.224;7.484;2023-07-20T14:10:36;1.03;;;0.80;;
29776;SDS011;16677;52.224;7.484;2023-07-20T14:13:08;0.80;;;0.80;;
29776;SDS011;16677;52.224;7.484;2023-07-20T14:15:36;1.20;;;0.90;;
29776;SDS011;16677;52.224;7.484;2023-07-20T14:18:03;1.02;;;0.85;;
29776;SDS011;16677;52.224;7.484;2023-07-20T14:20:30;0.80;;;0.77;;
29776;SDS011;16677;52.224;7.484;2023-07-20T14:22:57;0.70;;;0.70;;
29776;SDS011;16677;52.224;7.484;2023-07-20T14:25:25;0.80;;;0.80;;
29776;SDS011;16677;52.224;7.484;2023-07-20T14:27:55;1.08;;;0.80;;
29776;SDS011;16677;52.224;7.484;2023-07-20T14:30:22;0.82;;;0.80;;
29776;SDS011;16677;52.224;7.484;2023-07-20T14:32:50;1.92;;;1.08;;
29776;SDS011;16677;52.224;7.484;2023-07-20T14:35:17;1.05;;;0.75;;
29776;SDS011;16677;52.224;7.484;2023-07-20T14:37:45;2.88;;;1.10;;
29776;SDS011;16677;52.224;7.484;2023-07-20T14:40:13;2.22;;;0.90;;
29776;SDS011;16677;52.224;7.484;2023-07-20T14:42:40;2.08;;;0.95;;
29776;SDS011;16677;52.224;7.484;2023-07-20T14:45:08;4.00;;;1.10;;
29776;SDS011;16677;52.224;7.484;2023-07-20T14:47:35;2.28;;;0.98;;
29776;SDS011;16677;52.224;7.484;2023-07-20T14:50:04;1.08;;;0.95;;
29776;SDS011;16677;52.224;7.484;2023-07-20T14:52:32;1.33;;;0.90;;
29776;SDS011;16677;52.224;7.484;2023-07-20T14:55:00;3.45;;;1.08;;
29776;SDS011;16677;52.224;7.484;2023-07-20T14:57:28;2.53;;;0.90;;
29776;SDS011;16677;52.224;7.484;2023-07-20T14:59:55;5.20;;;1.30;;
29776;SDS011;16677;52.224;7.484;2023-07-20T15:02:22;2.45;;;0.95;;
29776;SDS011;16677;52.224;7.484;2023-07-20T15:04:51;0.82;;;0.82;;
29776;SDS011;16677;52.224;7.484;2023-07-20T15:07:19;1.10;;;0.90;;
29776;SDS011;16677;52.224;7.484;2023-07-20T15:09:51;4.82;;;1.40;;
29776;SDS011;16677;52.224;7.484;2023-07-20T15:12:18;3.13;;;1.17;;
29776;SDS011;16677;52.224;7.484;2023-07-20T15:14:49;3.53;;;1.05;;
29776;SDS011;16677;52.224;7.484;2023-07-20T15:17:32;0.93;;;0.80;;
29776;SDS011;16677;52.224;7.484;2023-07-20T15:20:03;3.40;;;1.00;;
29776;SDS011;16677;52.224;7.484;2023-07-20T15:22:33;1.02;;;0.93;;
29776;SDS011;16677;52.224;7.484;2023-07-20T15:25:02;2.25;;;1.27;;
29776;SDS011;16677;52.224;7.484;2023-07-20T15:27:30;2.05;;;0.90;;
29776;SDS011;16677;52.224;7.484;2023-07-20T15:29:59;4.13;;;1.00;;
29776;SDS011;16677;52.224;7.484;2023-07-20T15:32:33;1.98;;;0.80;;
29776;SDS011;16677;52.224;7.484;2023-07-20T15:35:06;0.80;;;0.80;;
29776;SDS011;16677;52.224;7.484;2023-07-20T15:37:43;1.30;;;0.98;;
29776;SDS011;16677;52.224;7.484;2023-07-20T15:40:11;1.10;;;0.95;;
29776;SDS011;16677;52.224;7.484;2023-07-20T15:42:39;1.58;;;1.15;;